Lake Wales, Florida
Current Conditions -  °F | °C
As of 2:47 PM on Thursday 23 Oct 2014 (Local Time) from KBOW Reporting Station
Few Clouds Few Clouds  
Wind Chill: 81°   Ceiling: Unl
Heat Index: 81°   Visibility: 10mi
Dew Point: 54°   Wind: 7mph
Humidity: 39%   Direction: 60°ENE
Pressure: 29.95"   Gusts: NA
Location:  27.9°N, 81.59°W
Report Text: KBOW 231847Z 06006KT 10SM FEW050 27/12 A2995
Loading
Personal Weather Stations






























Interactive Weather Map
Tropical Storm Tracking
New forecast layout! Learn more

10-Day Weather Forecast

Advertisements
Track Severe Weather on mobile